ADDS METAR Data INFO
IDs: Format: Raw Decoded Include TAF

Data at: 0835 UTC 21 Oct 2017

KHBI 210835Z AUTO 00000KT 10SM CLR 09/09 A3028 RMK AO2 T00920088
KHBI 210755Z AUTO 00000KT 10SM CLR 10/09 A3028 RMK AO2 T00950092
KHBI 210735Z AUTO 00000KT 10SM CLR 09/09 A3028 RMK AO2 T00920089
KHBI 210655Z AUTO 00000KT 10SM CLR 10/10 A3029 RMK AO2 T01020096
KHBI 210635Z AUTO 00000KT 10SM CLR 10/10 A3028 RMK AO2 T01030097
KHBI 210615Z AUTO 00000KT 10SM CLR 10/09 A3028 RMK AO2 T01010094
KHBI 210555Z AUTO 00000KT 10SM CLR 10/10 A3028 RMK AO2 T01030096 10158 20102 402480054
KHBI 210535Z AUTO 00000KT 10SM CLR 10/10 A3028 RMK AO2 T01030095
KHBI 210515Z AUTO 00000KT 10SM CLR 11/10 A3028 RMK AO2 T01060096
KHBI 210455Z AUTO 00000KT 10SM CLR 11/10 A3029 RMK AO2 T01080098
KHBI 210435Z AUTO 00000KT 10SM CLR 11/10 A3029 RMK AO2 T01120100
KHBI 210415Z AUTO 00000KT 10SM CLR 11/10 A3029 RMK AO2 T01130100
KHBI 210355Z AUTO 00000KT 10SM CLR 11/10 A3029 RMK AO2 T01140101
KHBI 210335Z AUTO 00000KT 10SM CLR 11/10 A3028 RMK AO2 T01130101
KHBI 210315Z AUTO 00000KT 10SM CLR 12/10 A3028 RMK AO2 T01190102
KHBI 210255Z AUTO 00000KT 10SM CLR 12/10 A3028 RMK AO2 T01210104
KHBI 210235Z AUTO 00000KT 10SM CLR 12/10 A3027 RMK AO2 T01240104
KHBI 210215Z AUTO 00000KT 10SM CLR 13/11 A3026 RMK AO2 T01310105
KHBI 210155Z AUTO 00000KT 10SM CLR 13/11 A3026 RMK AO2 T01260106
KHBI 210135Z AUTO 00000KT 10SM CLR 13/11 A3025 RMK AO2 T01300109
KHBI 210115Z AUTO 00000KT 10SM CLR 13/11 A3024 RMK AO2 T01320111
KHBI 210055Z AUTO 00000KT 10SM CLR 14/11 A3025 RMK AO2 T01370114
KHBI 210035Z AUTO 00000KT 10SM CLR 14/12 A3025 RMK AO2 T01440116
KHBI 210015Z AUTO 00000KT 10SM CLR 15/12 A3024 RMK AO2 T01500120
KHBI 202355Z AUTO 18003KT 10SM CLR 16/12 A3024 RMK AO2 T01560123 10248 20156
KHBI 202335Z AUTO 00000KT 10SM CLR 16/13 A3024 RMK AO2 T01640128
KHBI 202315Z AUTO 00000KT 10SM CLR 17/14 A3023 RMK AO2 T01720135
KHBI 202255Z AUTO 00000KT 10SM CLR 18/13 A3023 RMK AO2 T01820133
KHBI 202235Z AUTO 00000KT 7SM CLR 20/13 A3022 RMK AO2 T02000126
KHBI 202215Z AUTO 00000KT 10SM CLR 21/12 A3022 RMK AO2 T02140118
KHBI 202155Z AUTO 00000KT 10SM CLR 23/11 A3022 RMK AO2 T02270107
KHBI 202135Z AUTO 00000KT 10SM CLR 24/08 A3022 RMK AO2 T02420084
KHBI 202115Z AUTO 00000KT 10SM CLR 25/07 A3022 RMK AO2 T02460074
KHBI 202055Z AUTO 07004KT 10SM CLR 25/08 A3022 RMK AO2 T02480077
KHBI 202035Z AUTO 03003KT 10SM CLR 25/07 A3022 RMK AO2 T02460070
KHBI 202015Z AUTO 06004KT 10SM CLR 25/07 A3022 RMK AO2 T02470071
KHBI 201955Z AUTO 00000KT 10SM CLR 24/07 A3022 RMK AO2 T02440067
KHBI 201935Z AUTO 33003KT 10SM CLR 25/07 A3022 RMK AO2 T02460069
KHBI 201915Z AUTO 05003KT 10SM CLR 25/07 A3023 RMK AO2 T02450069
KHBI 201855Z AUTO 34006KT 10SM CLR 24/07 A3024 RMK AO2 T02420070
KHBI 201835Z AUTO 01003KT 10SM CLR 24/07 A3024 RMK AO2 T02400067
KHBI 201815Z AUTO 36004KT 10SM CLR 24/06 A3025 RMK AO2 T02400064
KHBI 201755Z AUTO 00000KT 10SM CLR 24/07 A3026 RMK AO2 T02380072 10238 20054
KHBI 201735Z AUTO 00000KT 10SM CLR 23/08 A3027 RMK AO2 T02280075
KHBI 201715Z AUTO 04003KT 10SM CLR 23/08 A3028 RMK AO2 T02280079
KHBI 201655Z AUTO 36004KT 10SM CLR 22/08 A3029 RMK AO2 T02230084
KHBI 201635Z AUTO 05003KT 10SM CLR 22/09 A3030 RMK AO2 T02160090
KHBI 201615Z AUTO 01004KT 10SM CLR 21/10 A3031 RMK AO2 T02110097
KHBI 201555Z AUTO 01006KT 10SM CLR 20/10 A3031 RMK AO2 T01990102
KHBI 201535Z AUTO 35005KT 10SM CLR 19/10 A3031 RMK AO2 T01890101
KHBI 201515Z AUTO 36004KT 10SM CLR 18/10 A3032 RMK AO2 T01800096
KHBI 201455Z AUTO 36004KT 10SM CLR 17/09 A3032 RMK AO2 T01700094
KHBI 201435Z AUTO 00000KT 10SM CLR 16/10 A3032 RMK AO2 T01550100
KHBI 201415Z AUTO 00000KT 10SM CLR 14/10 A3032 RMK AO2 T01440100
KHBI 201355Z AUTO 00000KT 10SM CLR 13/10 A3032 RMK AO2 T01280096
KHBI 201335Z AUTO 00000KT 10SM CLR 11/09 A3032 RMK AO2 T01060092
KHBI 201315Z AUTO 00000KT 10SM CLR 09/09 A3032 RMK AO2 T00880087
KHBI 201255Z AUTO 00000KT 10SM CLR 07/07 A3031 RMK AO2 T00730070
KHBI 201235Z AUTO 00000KT 10SM CLR 07/06 A3030 RMK AO2 T00670064
KHBI 201215Z AUTO 00000KT 10SM CLR 06/05 A3029 RMK AO2 T00550053
KHBI 201155Z AUTO 00000KT 10SM CLR 06/05 A3029 RMK AO2 T00580054 10075 20058
KHBI 201135Z AUTO 00000KT 10SM CLR 06/06 A3029 RMK AO2 T00610056
KHBI 201115Z AUTO 00000KT 10SM CLR 06/06 A3028 RMK AO2 T00610060
KHBI 201055Z AUTO 00000KT 10SM CLR 06/06 A3027 RMK AO2 T00640062
KHBI 201035Z AUTO 00000KT 10SM CLR 07/06 A3027 RMK AO2 T00650063
KHBI 201015Z AUTO 00000KT 10SM CLR 07/07 A3026 RMK AO2 T00650065
KHBI 200955Z AUTO 00000KT 10SM CLR 06/06 A3025 RMK AO2 T00640061
KHBI 200935Z AUTO 00000KT 10SM CLR 07/07 A3025 RMK AO2 T00670065
KHBI 200915Z AUTO 00000KT 10SM CLR 07/06 A3025 RMK AO2 T00690062
KHBI 200855Z AUTO 00000KT 10SM CLR 07/07 A3024 RMK AO2 T00710065
KHBI 200835Z AUTO 00000KT 10SM CLR 07/06 A3024 RMK AO2 T00730064
KHBI 200815Z AUTO 00000KT 10SM CLR 07/06 A3025 RMK AO2 T00680063
KHBI 200755Z AUTO 00000KT 10SM CLR 07/06 A3025 RMK AO2 T00690064
KHBI 200735Z AUTO 00000KT 10SM CLR 07/07 A3025 RMK AO2 T00700067
KHBI 200715Z AUTO 00000KT 10SM CLR 07/07 A3025 RMK AO2 T00710067
KHBI 200655Z AUTO 00000KT 10SM CLR 07/07 A3025 RMK AO2 T00710066
KHBI 200635Z AUTO 00000KT 10SM CLR 07/07 A3025 RMK AO2 T00720069
KHBI 200615Z AUTO 00000KT 10SM CLR 08/07 A3025 RMK AO2 T00750067
KHBI 200555Z AUTO 00000KT 10SM CLR 08/07 A3025 RMK AO2 T00750066 10136 20072 402230030
KHBI 200535Z AUTO 00000KT 10SM CLR 08/07 A3025 RMK AO2 T00750068
KHBI 200515Z AUTO 00000KT 10SM CLR 08/07 A3025 RMK AO2 T00750069
KHBI 200455Z AUTO 00000KT 10SM CLR 08/07 A3026 RMK AO2 T00770070
KHBI 200435Z AUTO 00000KT 10SM CLR 08/07 A3026 RMK AO2 T00790070
KHBI 200415Z AUTO 00000KT 10SM CLR 08/07 A3027 RMK AO2 T00800073
KHBI 200355Z AUTO 00000KT 10SM CLR 08/07 A3027 RMK AO2 T00800072
KHBI 200335Z AUTO 00000KT 10SM CLR 09/08 A3027 RMK AO2 T00860075
KHBI 200315Z AUTO 00000KT 10SM CLR 09/08 A3027 RMK AO2 T00870075
KHBI 200255Z AUTO 00000KT 10SM CLR 09/08 A3027 RMK AO2 T00880078
KHBI 200235Z AUTO 00000KT 10SM CLR 09/08 A3027 RMK AO2 T00930080
KHBI 200215Z AUTO 00000KT 10SM CLR 10/08 A3026 RMK AO2 T00950083
KHBI 200155Z AUTO 00000KT 10SM CLR 10/09 A3026 RMK AO2 T00970085
KHBI 200135Z AUTO 00000KT 10SM CLR 10/08 A3026 RMK AO2 T01020084
KHBI 200115Z AUTO 00000KT 10SM CLR 11/09 A3026 RMK AO2 T01080087
KHBI 200055Z AUTO 00000KT 10SM CLR 12/09 A3026 RMK AO2 T01160087
KHBI 200035Z AUTO 00000KT 10SM CLR 12/09 A3025 RMK AO2 T01200089
KHBI 200015Z AUTO 00000KT 10SM CLR 13/09 A3025 RMK AO2 T01320090
KHBI 192355Z AUTO 00000KT 10SM CLR 13/10 A3025 RMK AO2 T01290096 10223 20129
KHBI 192335Z AUTO 00000KT 10SM CLR 14/10 A3025 RMK AO2 T01430103
KHBI 192315Z AUTO 00000KT 10SM CLR 16/11 A3024 RMK AO2 T01550110
KHBI 192255Z AUTO 00000KT 1SM HZ VV007 16/12 A3024 RMK AO2 T01610119
KHBI 192235Z AUTO 00000KT 1SM HZ VV007 18/11 A3023 RMK AO2 VIS 1/2V5 T01780114
KHBI 192215Z AUTO 00000KT 3/4SM HZ VV005 19/09 A3024 RMK AO2 T01910094
KHBI 192155Z AUTO 00000KT 1 1/2SM HZ VV007 21/08 A3024 RMK AO2 T02070078
KHBI 192135Z AUTO 17003KT 7SM CLR 22/06 A3023 RMK AO2 T02170057
KHBI 192115Z AUTO 00000KT 10SM CLR 22/04 A3023 RMK AO2 T02210038
KHBI 192055Z AUTO 00000KT 10SM CLR 22/05 A3024 RMK AO2 T02220045